Time;durP1;ratioP1;P1;durP2;ratioP2;P2;SDS_P1;SDS_P2;PMS_P1;PMS_P2;Temp;Humidity;BMP_temperature;BMP_pressure;BME280_temperature;BME280_humidity;BME280_pressure;Samples;Min_cycle;Max_cycle;Signal;HPM_P1;HPM_P2
2020/12/06 17:56:33;;;;;;;4.97;1.35;;;34.30;62.40;;;;;;5004293;28;20036;-93
2020/12/06 17:59:04;;;;;;;1.88;1.10;;;34.90;60.10;;;;;;4941267;28;20042;-92
2020/12/06 18:04:31;;;;;;;2.05;1.08;;;34.50;57.80;;;;;;4948741;28;20312;-89
2020/12/06 18:07:00;;;;;;;1.52;1.08;;;34.50;59.00;;;;;;4991823;28;20346;-89
2020/12/06 18:09:41;;;;;;;2.92;1.10;;;34.60;60.80;;;;;;4979872;28;20035;-89
2020/12/06 18:12:08;;;;;;;2.25;1.00;;;34.60;58.80;;;;;;4968078;28;20035;-89
2020/12/06 18:14:37;;;;;;;1.45;1.00;;;34.70;59.10;;;;;;4967459;28;20114;-89
2020/12/06 18:17:22;;;;;;;1.75;1.00;;;34.70;58.90;;;;;;4966686;29;20075;-90
2020/12/06 18:19:49;;;;;;;1.00;0.85;;;34.70;58.40;;;;;;4949165;29;20124;-89
2020/12/06 18:22:17;;;;;;;2.45;1.15;;;35.10;58.70;;;;;;4948161;29;20035;-88
2020/12/06 18:24:44;;;;;;;2.20;1.00;;;35.20;58.30;;;;;;4949212;29;20050;-88
2020/12/06 18:27:12;;;;;;;1.08;0.93;;;35.10;56.90;;;;;;4950636;29;20111;-90
2020/12/06 18:29:46;;;;;;;1.30;0.90;;;35.30;58.80;;;;;;4949203;29;20111;-89
2020/12/06 18:32:13;;;;;;;2.25;1.33;;;35.40;57.10;;;;;;4945747;29;20043;-88
2020/12/06 18:34:39;;;;;;;2.38;1.50;;;35.20;58.40;;;;;;4954936;29;20027;-87
2020/12/06 18:37:06;;;;;;;1.50;1.02;;;35.20;58.20;;;;;;4957854;29;20384;-89
2020/12/06 18:39:33;;;;;;;1.80;1.23;;;35.20;57.00;;;;;;4955845;29;20034;-86
2020/12/06 18:42:13;;;;;;;2.60;1.42;;;35.40;58.00;;;;;;4959593;29;20061;-86
2020/12/06 18:44:39;;;;;;;2.00;1.30;;;35.50;57.40;;;;;;4938190;29;20035;-85
2020/12/06 18:47:55;;;;;;;1.35;1.10;;;35.30;57.70;;;;;;4956475;29;20031;-86
2020/12/06 18:51:08;;;;;;;2.05;1.05;;;35.00;57.10;;;;;;4921148;29;20032;-85
2020/12/06 18:53:46;;;;;;;;;;;34.70;60.30;;;;;;4899690;29;20036;-89
2020/12/06 18:56:38;;;;;;;1.58;1.05;;;34.90;60.60;;;;;;4893061;29;19903;-83
2020/12/06 18:59:05;;;;;;;2.47;1.08;;;35.20;60.70;;;;;;4876651;29;20102;-85
2020/12/06 19:01:32;;;;;;;6.63;2.63;;;35.00;59.20;;;;;;4877279;29;20034;-88
2020/12/06 19:04:01;;;;;;;0.98;0.88;;;35.30;59.00;;;;;;4861480;29;20037;-88
2020/12/06 19:06:29;;;;;;;1.40;0.85;;;35.20;58.50;;;;;;4875092;29;20029;-88
2020/12/06 19:08:57;;;;;;;2.15;1.02;;;35.20;57.90;;;;;;4874571;29;20041;-87
2020/12/06 19:11:25;;;;;;;2.75;1.30;;;35.30;57.90;;;;;;4859561;29;20108;-87
2020/12/06 19:13:51;;;;;;;5.22;1.20;;;35.30;57.30;;;;;;4875508;29;20038;-89
2020/12/06 19:16:18;;;;;;;2.85;1.00;;;35.10;56.80;;;;;;4875024;29;20036;-86
2020/12/06 19:18:47;;;;;;;1.35;0.70;;;34.90;56.70;;;;;;4877735;29;20061;-89
2020/12/06 19:21:20;;;;;;;1.33;1.02;;;34.70;55.20;;;;;;4859148;29;20057;-90
2020/12/06 19:23:46;;;;;;;1.45;0.63;;;34.50;55.70;;;;;;4895597;29;20035;-88
2020/12/06 19:26:14;;;;;;;2.38;0.82;;;34.60;58.20;;;;;;4955773;29;20023;-89
2020/12/06 19:29:02;;;;;;;1.10;0.63;;;35.00;56.20;;;;;;4940877;29;20031;-89
2020/12/06 19:31:50;;;;;;;1.48;0.65;;;35.00;53.90;;;;;;4917554;29;20197;-87
2020/12/06 19:34:17;;;;;;;1.90;0.88;;;34.90;54.50;;;;;;4895363;29;20347;-88
2020/12/06 19:36:45;;;;;;;1.95;0.50;;;34.80;56.10;;;;;;4894545;29;20224;-86
2020/12/06 19:39:14;;;;;;;3.35;0.88;;;34.90;56.00;;;;;;4893208;29;20033;-89
2020/12/06 19:41:43;;;;;;;4.63;1.42;;;34.90;57.30;;;;;;4894881;29;20346;-88
2020/12/06 19:44:13;;;;;;;6.32;1.00;;;34.70;58.00;;;;;;4893749;29;20040;-90
2020/12/06 19:46:41;;;;;;;;;;;34.40;58.00;;;;;;4909210;29;20038;-88
2020/12/06 19:49:10;;;;;;;4.05;1.80;;;33.80;60.00;;;;;;4895485;29;19990;-87
2020/12/06 19:51:41;;;;;;;1.40;1.02;;;33.70;59.90;;;;;;4928234;29;20094;-89
2020/12/06 19:54:13;;;;;;;2.35;1.27;;;33.60;60.90;;;;;;4929650;29;20036;-91
2020/12/06 19:56:43;;;;;;;2.97;1.73;;;33.90;60.10;;;;;;4914385;29;20052;-90
2020/12/06 19:59:16;;;;;;;6.68;3.28;;;34.10;61.60;;;;;;4927576;29;20048;-87
2020/12/06 20:01:43;;;;;;;3.25;2.50;;;34.20;59.40;;;;;;4929862;29;20115;-91
2020/12/06 20:04:13;;;;;;;5.88;4.05;;;34.10;61.00;;;;;;4928317;29;20039;-92
2020/12/06 20:06:41;;;;;;;1.80;1.50;;;34.00;60.20;;;;;;4966793;29;20035;-90
2020/12/06 20:09:11;;;;;;;2.42;1.92;;;33.90;59.10;;;;;;4965821;29;20350;-88
2020/12/06 20:11:44;;;;;;;2.65;1.55;;;33.30;62.60;;;;;;4959220;29;20041;-89
2020/12/06 20:14:23;;;;;;;4.57;3.20;;;33.20;63.20;;;;;;4965025;29;20031;-87
2020/12/06 20:16:58;;;;;;;4.90;2.35;;;33.40;62.50;;;;;;4966382;29;20107;-91
2020/12/06 20:19:34;;;;;;;7.57;4.65;;;33.50;61.70;;;;;;4958710;29;20231;-91
2020/12/06 20:22:04;;;;;;;5.70;3.10;;;33.50;62.20;;;;;;4962655;28;20067;-89
2020/12/06 20:24:31;;;;;;;6.25;4.47;;;33.50;62.40;;;;;;4964802;29;20114;-88
2020/12/06 20:27:06;;;;;;;5.15;2.92;;;33.30;62.40;;;;;;4954093;28;20262;-91
2020/12/06 20:29:36;;;;;;;3.95;3.03;;;33.20;63.10;;;;;;5005189;28;20030;-90
2020/12/06 20:32:20;;;;;;;2.80;1.90;;;33.10;63.20;;;;;;5024357;28;20329;-91
2020/12/06 20:34:49;;;;;;;3.65;1.80;;;32.90;63.10;;;;;;5020453;28;20030;-91
2020/12/06 20:37:17;;;;;;;3.35;1.95;;;32.90;64.60;;;;;;4991688;28;20101;-91
2020/12/06 20:39:47;;;;;;;1.00;0.70;;;32.60;65.10;;;;;;5008158;28;20053;-91
2020/12/06 20:42:22;;;;;;;2.03;1.08;;;32.10;63.80;;;;;;5024173;28;20042;-90
2020/12/06 20:44:51;;;;;;;4.07;1.65;;;32.00;65.70;;;;;;5008330;28;20351;-91
2020/12/06 20:47:26;;;;;;;0.80;0.75;;;31.80;66.90;;;;;;5008358;28;20038;-90
2020/12/06 20:49:53;;;;;;;1.35;1.08;;;32.00;67.10;;;;;;5008585;28;20030;-90
2020/12/06 20:52:21;;;;;;;2.03;0.90;;;32.10;64.90;;;;;;5008729;28;20029;-89
2020/12/06 20:54:47;;;;;;;0.85;0.80;;;31.90;66.40;;;;;;5007947;28;20065;-89
2020/12/06 20:57:14;;;;;;;5.65;1.52;;;31.80;67.50;;;;;;4991692;28;20030;-89
2020/12/06 20:59:44;;;;;;;2.92;1.17;;;32.00;65.50;;;;;;5024779;28;20054;-91
2020/12/06 21:02:12;;;;;;;3.88;1.52;;;32.00;65.50;;;;;;5008268;28;20038;-89
2020/12/06 21:04:43;;;;;;;3.08;1.63;;;32.00;66.30;;;;;;4992563;28;20106;-91
2020/12/06 21:07:09;;;;;;;3.85;2.75;;;31.80;64.90;;;;;;5008287;28;20037;-90
2020/12/06 21:09:42;;;;;;;8.85;5.50;;;31.70;64.00;;;;;;5021892;28;20029;-91
2020/12/06 21:12:20;;;;;;;5.75;3.90;;;31.70;64.80;;;;;;5008905;28;20097;-90
2020/12/06 21:15:11;;;;;;;6.93;3.80;;;31.80;66.90;;;;;;4997728;28;20030;-90
2020/12/06 21:17:49;;;;;;;4.65;2.30;;;32.00;67.00;;;;;;4969530;28;20381;-92
2020/12/06 21:20:46;;;;;;;3.45;1.40;;;32.00;67.10;;;;;;4974720;28;20031;-89
2020/12/06 21:24:24;;;;;;;2.60;1.13;;;32.00;67.00;;;;;;4991776;28;20037;-89
2020/12/06 21:26:50;;;;;;;2.88;0.88;;;32.00;66.90;;;;;;4930781;29;20061;-93
2020/12/06 21:29:33;;;;;;;2.97;1.05;;;31.90;66.20;;;;;;4914700;29;20032;-89
2020/12/06 21:32:01;;;;;;;1.25;0.75;;;31.70;67.10;;;;;;4917080;29;20040;-88
2020/12/06 21:34:38;;;;;;;1.95;0.90;;;31.80;66.50;;;;;;4954354;28;20030;-91
2020/12/06 21:37:11;;;;;;;1.38;0.63;;;31.60;64.70;;;;;;4925818;28;20046;-91
2020/12/06 21:39:41;;;;;;;1.20;0.85;;;31.40;66.90;;;;;;4970500;28;20070;-88
2020/12/06 21:42:14;;;;;;;2.33;1.33;;;31.40;67.00;;;;;;4970816;28;20034;-88
2020/12/06 21:44:50;;;;;;;1.38;1.00;;;31.30;66.70;;;;;;4971685;28;20038;-86
2020/12/06 21:47:16;;;;;;;1.48;1.00;;;31.20;67.30;;;;;;4980782;28;20049;-89
2020/12/06 21:49:43;;;;;;;2.85;0.82;;;31.10;67.40;;;;;;5023807;28;20037;-88
2020/12/06 21:52:16;;;;;;;1.15;0.80;;;30.90;68.50;;;;;;5025200;28;20049;-90
2020/12/06 21:54:47;;;;;;;2.05;0.90;;;30.90;69.20;;;;;;5006779;28;20314;-93
2020/12/06 21:57:19;;;;;;;2.88;0.82;;;30.80;69.00;;;;;;5008992;28;20061;-90
2020/12/06 21:59:50;;;;;;;1.27;0.80;;;30.80;69.50;;;;;;4988237;28;20054;-91
2020/12/06 22:02:20;;;;;;;4.82;1.00;;;30.70;70.50;;;;;;4987242;28;20065;-92
2020/12/06 22:05:06;;;;;;;2.80;1.00;;;30.60;70.80;;;;;;5005920;28;20322;-92
2020/12/06 22:07:35;;;;;;;5.57;1.60;;;30.50;71.70;;;;;;5006392;28;20038;-91
2020/12/06 22:10:11;;;;;;;5.05;1.45;;;30.50;72.00;;;;;;5008956;28;20040;-91
2020/12/06 22:12:46;;;;;;;2.58;0.98;;;30.40;72.30;;;;;;5010225;28;20046;-89
2020/12/06 22:15:17;;;;;;;1.67;1.20;;;30.30;72.90;;;;;;4991804;28;20026;-88
2020/12/06 22:17:48;;;;;;;2.97;0.90;;;30.20;73.60;;;;;;4991581;28;20318;-90
2020/12/06 22:20:19;;;;;;;3.95;0.98;;;30.10;74.10;;;;;;4960429;28;20101;-88
2020/12/06 22:22:52;;;;;;;1.60;0.70;;;30.10;75.30;;;;;;4990811;28;20210;-90
2020/12/06 22:25:35;;;;;;;1.55;0.98;;;29.90;76.20;;;;;;5008586;28;20041;-93
2020/12/06 22:28:09;;;;;;;1.75;1.02;;;29.80;77.00;;;;;;4976036;28;20106;-92
2020/12/06 22:30:41;;;;;;;3.08;1.23;;;29.60;77.60;;;;;;5004744;28;20034;-87
2020/12/06 22:33:08;;;;;;;2.92;1.55;;;29.60;77.80;;;;;;4991205;28;20072;-87
2020/12/06 22:35:36;;;;;;;4.78;2.30;;;29.60;78.20;;;;;;4995446;28;20030;-90
2020/12/06 22:38:06;;;;;;;7.15;3.45;;;29.60;77.60;;;;;;4997600;28;20036;-88
2020/12/06 22:40:35;;;;;;;40.50;20.52;;;29.50;78.50;;;;;;4996628;28;20030;-91
2020/12/06 22:43:03;;;;;;;86.35;42.63;;;29.50;77.90;;;;;;4996904;28;20072;-87
2020/12/06 22:45:38;;;;;;;159.50;84.13;;;29.50;78.60;;;;;;5013794;28;20030;-90
2020/12/06 22:48:13;;;;;;;95.25;52.30;;;29.50;79.50;;;;;;5021183;28;20045;-94
2020/12/06 22:50:51;;;;;;;79.50;42.70;;;29.40;79.00;;;;;;5003934;28;20038;-86
2020/12/06 22:53:22;;;;;;;38.88;20.90;;;29.30;78.60;;;;;;5021448;28;20011;-87
2020/12/06 22:55:48;;;;;;;11.77;5.95;;;29.10;80.90;;;;;;5004611;28;20057;-88
2020/12/06 22:58:15;;;;;;;9.15;4.80;;;28.90;81.70;;;;;;5003962;28;20046;-85
2020/12/06 23:00:45;;;;;;;4.18;2.20;;;28.70;82.30;;;;;;4999359;28;20053;-87
2020/12/06 23:03:13;;;;;;;7.18;3.45;;;28.70;83.10;;;;;;4991507;28;20110;-86
2020/12/06 23:05:41;;;;;;;5.15;3.22;;;28.60;82.40;;;;;;4990275;28;20077;-86
2020/12/06 23:08:10;;;;;;;7.00;2.03;;;28.60;82.40;;;;;;4991931;28;20027;-88
2020/12/06 23:10:37;;;;;;;8.02;2.65;;;28.60;83.10;;;;;;4990880;28;20066;-87
2020/12/06 23:13:04;;;;;;;6.75;2.88;;;28.50;82.40;;;;;;4991679;28;20042;-86
2020/12/06 23:15:31;;;;;;;5.10;2.60;;;28.60;81.70;;;;;;4991577;28;20045;-91
2020/12/06 23:18:33;;;;;;;7.82;3.78;;;28.70;83.00;;;;;;5008778;28;20026;-94
2020/12/06 23:21:10;;;;;;;7.55;4.45;;;28.60;82.70;;;;;;4893445;29;20212;-93
2020/12/06 23:23:56;;;;;;;7.25;4.25;;;28.60;82.80;;;;;;4949218;29;20034;-95
2020/12/06 23:26:25;;;;;;;8.00;5.18;;;28.50;83.90;;;;;;4948874;29;20066;-92
2020/12/06 23:28:54;;;;;;;6.38;3.90;;;28.50;85.60;;;;;;4935377;29;20027;-93
2020/12/06 23:32:04;;;;;;;12.50;5.10;;;28.20;85.00;;;;;;4937268;28;20067;-87
2020/12/06 23:35:02;;;;;;;13.20;5.30;;;28.30;83.70;;;;;;4952779;29;20035;-91
2020/12/06 23:40:42;;;;;;;12.60;7.10;;;28.20;83.40;;;;;;4951477;29;20070;-92
2020/12/06 23:43:37;;;;;;;16.73;6.70;;;28.20;85.20;;;;;;4948544;29;20036;-92
2020/12/06 23:49:36;;;;;;;6.40;3.30;;;28.10;85.30;;;;;;4952384;29;20030;-91
2020/12/06 23:52:03;;;;;;;4.88;2.17;;;28.10;84.60;;;;;;4954568;29;20042;-94
2020/12/06 23:55:12;;;;;;;4.80;2.33;;;28.00;85.30;;;;;;4975820;28;20050;-92
2020/12/06 23:57:51;;;;;;;9.02;2.22;;;27.90;85.00;;;;;;4943317;29;20038;-90
